sensor_id;sensor_type;location;lat;lon;timestamp;pressure;altitude;pressure_sealevel;temperature;humidity
24752;BME280;27246;52.376;4.628;2023-08-24T00:02:53;101713.13;;;20.06;76.77
24752;BME280;27246;52.376;4.628;2023-08-24T00:07:55;101703.66;;;20.14;76.82
24752;BME280;27246;52.376;4.628;2023-08-24T00:12:57;101690.97;;;20.11;77.06
24752;BME280;27246;52.376;4.628;2023-08-24T00:17:58;101679.41;;;20.01;77.08
24752;BME280;27246;52.376;4.628;2023-08-24T00:23:00;101689.06;;;20.12;77.42
24752;BME280;27246;52.376;4.628;2023-08-24T00:28:02;101681.94;;;20.16;77.45
24752;BME280;27246;52.376;4.628;2023-08-24T00:33:05;101681.75;;;20.11;79.12
24752;BME280;27246;52.376;4.628;2023-08-24T00:38:07;101687.97;;;20.13;80.79
24752;BME280;27246;52.376;4.628;2023-08-24T00:43:09;101694.66;;;20.12;82.81
24752;BME280;27246;52.376;4.628;2023-08-24T00:48:11;101682.59;;;20.11;83.63
24752;BME280;27246;52.376;4.628;2023-08-24T00:53:13;101683.47;;;20.12;85.00
24752;BME280;27246;52.376;4.628;2023-08-24T00:58:15;101671.47;;;20.05;85.72
24752;BME280;27246;52.376;4.628;2023-08-24T01:03:19;101678.38;;;19.89;87.19
24752;BME280;27246;52.376;4.628;2023-08-24T01:08:21;101689.06;;;20.12;88.49
24752;BME280;27246;52.376;4.628;2023-08-24T01:18:50;101662.97;;;19.73;90.35
24752;BME280;27246;52.376;4.628;2023-08-24T01:24:04;101664.91;;;19.72;89.24
24752;BME280;27246;52.376;4.628;2023-08-24T01:29:12;101664.88;;;19.79;89.49
24752;BME280;27246;52.376;4.628;2023-08-24T01:34:13;101641.06;;;19.76;89.45
24752;BME280;27246;52.376;4.628;2023-08-24T01:39:29;101645.34;;;19.79;89.29
24752;BME280;27246;52.376;4.628;2023-08-24T01:44:38;101637.44;;;19.69;88.32
24752;BME280;27246;52.376;4.628;2023-08-24T01:49:41;101634.63;;;19.63;87.88
24752;BME280;27246;52.376;4.628;2023-08-24T01:54:44;101636.81;;;19.54;88.02
24752;BME280;27246;52.376;4.628;2023-08-24T01:59:45;101629.31;;;19.48;86.94
24752;BME280;27246;52.376;4.628;2023-08-24T02:04:48;101618.38;;;19.46;86.21
24752;BME280;27246;52.376;4.628;2023-08-24T02:09:51;101619.22;;;19.47;85.86
24752;BME280;27246;52.376;4.628;2023-08-24T02:14:53;101633.81;;;19.55;86.49
24752;BME280;27246;52.376;4.628;2023-08-24T02:19:55;101611.97;;;19.39;85.21
24752;BME280;27246;52.376;4.628;2023-08-24T02:24:57;101609.38;;;19.31;85.94
24752;BME280;27246;52.376;4.628;2023-08-24T02:29:59;101613.25;;;19.36;85.96
24752;BME280;27246;52.376;4.628;2023-08-24T02:35:00;101614.53;;;19.47;86.55
24752;BME280;27246;52.376;4.628;2023-08-24T02:40:05;101602.28;;;19.48;87.10
24752;BME280;27246;52.376;4.628;2023-08-24T02:45:10;101584.50;;;19.36;88.22
24752;BME280;27246;52.376;4.628;2023-08-24T02:50:12;101571.81;;;19.40;87.79
24752;BME280;27246;52.376;4.628;2023-08-24T02:55:14;101561.53;;;19.34;87.86
24752;BME280;27246;52.376;4.628;2023-08-24T03:00:16;101569.03;;;19.40;87.74
24752;BME280;27246;52.376;4.628;2023-08-24T03:05:18;101567.09;;;19.41;88.89
24752;BME280;27246;52.376;4.628;2023-08-24T03:10:20;101556.19;;;19.26;89.29
24752;BME280;27246;52.376;4.628;2023-08-24T03:15:22;101562.66;;;19.19;90.05
24752;BME280;27246;52.376;4.628;2023-08-24T03:20:24;101555.81;;;19.15;90.24
24752;BME280;27246;52.376;4.628;2023-08-24T03:25:26;101550.44;;;19.14;91.02
24752;BME280;27246;52.376;4.628;2023-08-24T03:30:28;101549.78;;;19.18;91.26
24752;BME280;27246;52.376;4.628;2023-08-24T03:35:31;101549.78;;;19.18;91.58
24752;BME280;27246;52.376;4.628;2023-08-24T03:40:34;101544.00;;;19.13;91.16
24752;BME280;27246;52.376;4.628;2023-08-24T03:45:36;101534.78;;;19.13;91.24
24752;BME280;27246;52.376;4.628;2023-08-24T03:50:40;101536.75;;;18.99;92.40
24752;BME280;27246;52.376;4.628;2023-08-24T03:55:41;101535.66;;;19.00;92.61
24752;BME280;27246;52.376;4.628;2023-08-24T04:00:44;101547.22;;;19.10;93.01
24752;BME280;27246;52.376;4.628;2023-08-24T04:05:46;101547.22;;;19.10;92.95
24752;BME280;27246;52.376;4.628;2023-08-24T04:10:48;101544.66;;;19.15;92.77
24752;BME280;27246;52.376;4.628;2023-08-24T04:15:49;101541.63;;;19.10;93.22
24752;BME280;27246;52.376;4.628;2023-08-24T04:20:52;101538.44;;;19.07;92.94
24752;BME280;27246;52.376;4.628;2023-08-24T04:25:54;101533.09;;;18.98;94.15
24752;BME280;27246;52.376;4.628;2023-08-24T04:30:56;101531.81;;;18.94;94.67
24752;BME280;27246;52.376;4.628;2023-08-24T04:35:58;101536.97;;;18.91;94.97
24752;BME280;27246;52.376;4.628;2023-08-24T04:41:00;101536.31;;;18.95;95.72
24752;BME280;27246;52.376;4.628;2023-08-24T04:46:02;101529.66;;;18.96;95.14
24752;BME280;27246;52.376;4.628;2023-08-24T04:51:04;101525.84;;;18.91;95.69
24752;BME280;27246;52.376;4.628;2023-08-24T04:56:06;101514.25;;;18.87;95.88
24752;BME280;27246;52.376;4.628;2023-08-24T05:01:08;101497.56;;;18.81;96.67
24752;BME280;27246;52.376;4.628;2023-08-24T05:06:12;101507.41;;;18.83;96.76
24752;BME280;27246;52.376;4.628;2023-08-24T05:11:18;101502.03;;;18.82;96.81
24752;BME280;27246;52.376;4.628;2023-08-24T05:16:20;101494.09;;;18.85;96.93
24752;BME280;27246;52.376;4.628;2023-08-24T05:21:22;101496.88;;;18.85;97.51
24752;BME280;27246;52.376;4.628;2023-08-24T05:26:24;101497.06;;;18.90;97.59
24752;BME280;27246;52.376;4.628;2023-08-24T05:31:26;101485.06;;;18.90;97.75
24752;BME280;27246;52.376;4.628;2023-08-24T05:36:27;101485.06;;;18.90;98.18
24752;BME280;27246;52.376;4.628;2023-08-24T05:41:29;101487.38;;;19.06;98.18
24752;BME280;27246;52.376;4.628;2023-08-24T05:46:31;101477.13;;;19.00;98.09
24752;BME280;27246;52.376;4.628;2023-08-24T05:51:33;101465.34;;;18.91;98.42
24752;BME280;27246;52.376;4.628;2023-08-24T05:56:34;101449.94;;;18.89;99.14
24752;BME280;27246;52.376;4.628;2023-08-24T06:01:36;101447.75;;;18.97;99.21
24752;BME280;27246;52.376;4.628;2023-08-24T06:06:43;101444.31;;;18.95;98.91
24752;BME280;27246;52.376;4.628;2023-08-24T06:11:45;101430.59;;;18.94;99.44
24752;BME280;27246;52.376;4.628;2023-08-24T06:16:47;101399.72;;;18.95;99.29
24752;BME280;27246;52.376;4.628;2023-08-24T06:21:50;101409.56;;;18.98;99.31
24752;BME280;27246;52.376;4.628;2023-08-24T06:26:51;101408.25;;;19.01;99.20
24752;BME280;27246;52.376;4.628;2023-08-24T06:31:53;101408.25;;;19.07;98.49
24752;BME280;27246;52.376;4.628;2023-08-24T06:36:55;101397.66;;;19.23;97.81
24752;BME280;27246;52.376;4.628;2023-08-24T06:41:57;101392.28;;;19.28;97.33
24752;BME280;27246;52.376;4.628;2023-08-24T06:47:00;101406.81;;;19.36;96.98
24752;BME280;27246;52.376;4.628;2023-08-24T06:52:06;101406.75;;;19.50;96.77
24752;BME280;27246;52.376;4.628;2023-08-24T06:57:07;101394.28;;;19.52;96.02
24752;BME280;27246;52.376;4.628;2023-08-24T07:02:10;101401.59;;;19.53;96.17
24752;BME280;27246;52.376;4.628;2023-08-24T07:07:12;101383.94;;;19.59;96.05
24752;BME280;27246;52.376;4.628;2023-08-24T07:12:14;101373.94;;;19.77;95.90
24752;BME280;27246;52.376;4.628;2023-08-24T07:17:16;101360.19;;;19.82;95.38
24752;BME280;27246;52.376;4.628;2023-08-24T07:22:17;101354.31;;;19.90;94.92
24752;BME280;27246;52.376;4.628;2023-08-24T07:27:20;101356.25;;;19.90;94.11
24752;BME280;27246;52.376;4.628;2023-08-24T07:32:22;101353.53;;;20.08;94.13
24752;BME280;27246;52.376;4.628;2023-08-24T07:37:27;101341.03;;;20.29;92.91
24752;BME280;27246;52.376;4.628;2023-08-24T07:42:28;101340.13;;;20.54;91.25
24752;BME280;27246;52.376;4.628;2023-08-24T07:47:30;101336.25;;;20.55;91.06
24752;BME280;27246;52.376;4.628;2023-08-24T07:52:32;101327.59;;;20.63;90.36
24752;BME280;27246;52.376;4.628;2023-08-24T07:57:34;101327.66;;;20.75;89.54
24752;BME280;27246;52.376;4.628;2023-08-24T08:02:36;101323.72;;;20.83;88.30
24752;BME280;27246;52.376;4.628;2023-08-24T08:07:40;101315.97;;;20.96;88.43
24752;BME280;27246;52.376;4.628;2023-08-24T08:12:41;101328.59;;;21.17;86.64
24752;BME280;27246;52.376;4.628;2023-08-24T08:17:43;101319.69;;;21.39;86.02
24752;BME280;27246;52.376;4.628;2023-08-24T08:22:45;101324.34;;;21.45;85.06
24752;BME280;27246;52.376;4.628;2023-08-24T08:27:46;101323.63;;;21.50;83.52
24752;BME280;27246;52.376;4.628;2023-08-24T08:32:49;101317.31;;;21.54;82.67
24752;BME280;27246;52.376;4.628;2023-08-24T08:37:52;101305.16;;;21.61;82.96
24752;BME280;27246;52.376;4.628;2023-08-24T08:42:57;101304.91;;;21.62;82.20
24752;BME280;27246;52.376;4.628;2023-08-24T08:47:59;101315.13;;;21.56;80.47
24752;BME280;27246;52.376;4.628;2023-08-24T08:53:03;101302.69;;;21.52;80.12
24752;BME280;27246;52.376;4.628;2023-08-24T08:58:05;101275.81;;;21.51;81.23
24752;BME280;27246;52.376;4.628;2023-08-24T09:03:08;101248.91;;;21.50;81.87
24752;BME280;27246;52.376;4.628;2023-08-24T09:08:13;101250.63;;;21.51;83.36
24752;BME280;27246;52.376;4.628;2023-08-24T09:13:17;101252.81;;;21.49;83.67
24752;BME280;27246;52.376;4.628;2023-08-24T09:18:19;101262.78;;;21.45;84.73
24752;BME280;27246;52.376;4.628;2023-08-24T09:23:21;101286.25;;;21.44;85.03
24752;BME280;27246;52.376;4.628;2023-08-24T09:28:23;101274.03;;;21.38;85.38
24752;BME280;27246;52.376;4.628;2023-08-24T09:33:29;101275.22;;;21.31;84.97
24752;BME280;27246;52.376;4.628;2023-08-24T09:38:31;101262.81;;;21.27;86.03
24752;BME280;27246;52.376;4.628;2023-08-24T09:43:33;101254.69;;;21.25;86.58
24752;BME280;27246;52.376;4.628;2023-08-24T09:48:35;101257.22;;;21.27;88.28
24752;BME280;27246;52.376;4.628;2023-08-24T09:53:37;101252.72;;;21.26;89.25
24752;BME280;27246;52.376;4.628;2023-08-24T09:58:43;101263.91;;;21.26;89.79
24752;BME280;27246;52.376;4.628;2023-08-24T10:03:48;101278.53;;;21.28;90.81
24752;BME280;27246;52.376;4.628;2023-08-24T10:08:55;101290.47;;;21.35;94.54
24752;BME280;27246;52.376;4.628;2023-08-24T10:19:11;101291.09;;;21.37;98.44
24752;BME280;27246;52.376;4.628;2023-08-24T10:24:14;101309.41;;;21.33;99.47
24752;BME280;27246;52.376;4.628;2023-08-24T10:29:17;101341.41;;;21.25;99.10
24752;BME280;27246;52.376;4.628;2023-08-24T10:34:19;101334.81;;;21.20;97.43
24752;BME280;27246;52.376;4.628;2023-08-24T10:39:28;101345.38;;;21.17;98.83
24752;BME280;27246;52.376;4.628;2023-08-24T10:44:34;101334.19;;;21.17;100.00
24752;BME280;27246;52.376;4.628;2023-08-24T10:49:44;101324.09;;;21.16;100.00
24752;BME280;27246;52.376;4.628;2023-08-24T10:54:47;101323.34;;;21.09;100.00
24752;BME280;27246;52.376;4.628;2023-08-24T11:00:06;101281.50;;;21.03;100.00
24752;BME280;27246;52.376;4.628;2023-08-24T11:05:30;101258.91;;;20.86;100.00
24752;BME280;27246;52.376;4.628;2023-08-24T11:15:48;101224.00;;;20.76;100.00
24752;BME280;27246;52.376;4.628;2023-08-24T11:21:00;101224.41;;;20.92;100.00
24752;BME280;27246;52.376;4.628;2023-08-24T11:26:03;101224.28;;;20.87;100.00
24752;BME280;27246;52.376;4.628;2023-08-24T11:31:05;101204.72;;;20.87;100.00
24752;BME280;27246;52.376;4.628;2023-08-24T11:36:10;101198.78;;;20.95;100.00
24752;BME280;27246;52.376;4.628;2023-08-24T11:41:15;101195.75;;;21.08;100.00
24752;BME280;27246;52.376;4.628;2023-08-24T11:46:17;101184.84;;;21.07;100.00
24752;BME280;27246;52.376;4.628;2023-08-24T11:51:20;101180.66;;;20.97;100.00
24752;BME280;27246;52.376;4.628;2023-08-24T11:56:42;101175.59;;;21.18;100.00
24752;BME280;27246;52.376;4.628;2023-08-24T12:01:45;101173.28;;;21.27;100.00
24752;BME280;27246;52.376;4.628;2023-08-24T12:06:49;101154.41;;;21.10;100.00
24752;BME280;27246;52.376;4.628;2023-08-24T12:11:58;101124.75;;;21.09;100.00
24752;BME280;27246;52.376;4.628;2023-08-24T12:17:06;101118.81;;;21.29;100.00
24752;BME280;27246;52.376;4.628;2023-08-24T12:22:15;101111.41;;;21.35;100.00
24752;BME280;27246;52.376;4.628;2023-08-24T12:27:22;101093.91;;;21.51;100.00
24752;BME280;27246;52.376;4.628;2023-08-24T12:32:24;101087.31;;;21.46;100.00
24752;BME280;27246;52.376;4.628;2023-08-24T12:37:28;101074.16;;;21.58;100.00
24752;BME280;27246;52.376;4.628;2023-08-24T12:42:30;101076.44;;;21.61;100.00
24752;BME280;27246;52.376;4.628;2023-08-24T12:47:32;101076.59;;;21.66;100.00
24752;BME280;27246;52.376;4.628;2023-08-24T12:52:37;101068.19;;;21.66;100.00
24752;BME280;27246;52.376;4.628;2023-08-24T12:57:42;101083.38;;;21.70;100.00
24752;BME280;27246;52.376;4.628;2023-08-24T13:02:44;101049.19;;;21.68;100.00
24752;BME280;27246;52.376;4.628;2023-08-24T13:07:46;101051.03;;;21.63;100.00
24752;BME280;27246;52.376;4.628;2023-08-24T13:12:48;101041.19;;;21.60;100.00
24752;BME280;27246;52.376;4.628;2023-08-24T13:17:49;101037.88;;;21.63;100.00
24752;BME280;27246;52.376;4.628;2023-08-24T13:22:55;101041.41;;;21.70;100.00
24752;BME280;27246;52.376;4.628;2023-08-24T13:27:56;101043.19;;;21.76;100.00
24752;BME280;27246;52.376;4.628;2023-08-24T13:32:58;101029.19;;;21.76;100.00
24752;BME280;27246;52.376;4.628;2023-08-24T13:38:00;101034.56;;;21.78;100.00
24752;BME280;27246;52.376;4.628;2023-08-24T13:43:01;101038.66;;;21.87;100.00
24752;BME280;27246;52.376;4.628;2023-08-24T13:48:03;101023.16;;;21.96;100.00
24752;BME280;27246;52.376;4.628;2023-08-24T13:53:08;101025.13;;;21.96;100.00
24752;BME280;27246;52.376;4.628;2023-08-24T13:58:14;101025.75;;;21.86;99.68
24752;BME280;27246;52.376;4.628;2023-08-24T14:03:16;101044.97;;;21.94;98.91
24752;BME280;27246;52.376;4.628;2023-08-24T14:08:18;101042.97;;;22.07;99.95
24752;BME280;27246;52.376;4.628;2023-08-24T14:13:22;101034.16;;;22.15;100.00
24752;BME280;27246;52.376;4.628;2023-08-24T14:18:26;101040.97;;;22.19;100.00
24752;BME280;27246;52.376;4.628;2023-08-24T14:23:29;101022.78;;;22.22;100.00
24752;BME280;27246;52.376;4.628;2023-08-24T14:28:48;101010.88;;;22.26;100.00
24752;BME280;27246;52.376;4.628;2023-08-24T14:33:51;100995.94;;;22.37;100.00
24752;BME280;27246;52.376;4.628;2023-08-24T14:38:52;100994.25;;;22.36;100.00
24752;BME280;27246;52.376;4.628;2023-08-24T14:43:54;100973.44;;;22.32;100.00
24752;BME280;27246;52.376;4.628;2023-08-24T14:48:56;100988.13;;;22.40;100.00
24752;BME280;27246;52.376;4.628;2023-08-24T14:53:58;100986.78;;;22.42;99.69
24752;BME280;27246;52.376;4.628;2023-08-24T14:58:59;100972.50;;;22.44;99.44
24752;BME280;27246;52.376;4.628;2023-08-24T15:04:01;100974.78;;;22.47;99.22
24752;BME280;27246;52.376;4.628;2023-08-24T15:09:03;100972.84;;;22.47;98.57
24752;BME280;27246;52.376;4.628;2023-08-24T15:14:05;100971.16;;;22.46;98.77
24752;BME280;27246;52.376;4.628;2023-08-24T15:19:07;100964.59;;;22.41;98.44
24752;BME280;27246;52.376;4.628;2023-08-24T15:24:08;100951.44;;;22.41;98.69
24752;BME280;27246;52.376;4.628;2023-08-24T15:29:14;100930.44;;;22.44;100.00
24752;BME280;27246;52.376;4.628;2023-08-24T15:34:19;100925.97;;;22.43;100.00
24752;BME280;27246;52.376;4.628;2023-08-24T15:39:20;100929.94;;;22.47;99.44
24752;BME280;27246;52.376;4.628;2023-08-24T15:44:22;100922.19;;;22.54;98.76
24752;BME280;27246;52.376;4.628;2023-08-24T15:49:24;100928.41;;;22.56;98.73
24752;BME280;27246;52.376;4.628;2023-08-24T15:54:26;100916.69;;;22.59;98.55
24752;BME280;27246;52.376;4.628;2023-08-24T15:59:28;100905.22;;;22.61;98.48
24752;BME280;27246;52.376;4.628;2023-08-24T16:04:30;100905.72;;;22.57;98.67
24752;BME280;27246;52.376;4.628;2023-08-24T16:09:32;100891.66;;;22.52;98.74
24752;BME280;27246;52.376;4.628;2023-08-24T16:14:33;100894.69;;;22.51;99.97
24752;BME280;27246;52.376;4.628;2023-08-24T16:19:35;100887.06;;;22.46;99.76
24752;BME280;27246;52.376;4.628;2023-08-24T16:24:37;100880.88;;;22.44;100.00
24752;BME280;27246;52.376;4.628;2023-08-24T16:29:39;100869.91;;;22.43;100.00
24752;BME280;27246;52.376;4.628;2023-08-24T16:34:42;100871.09;;;22.47;100.00
24752;BME280;27246;52.376;4.628;2023-08-24T16:39:44;100866.06;;;22.49;100.00
24752;BME280;27246;52.376;4.628;2023-08-24T16:44:46;100869.22;;;22.52;100.00
24752;BME280;27246;52.376;4.628;2023-08-24T16:49:48;100877.34;;;22.54;100.00
24752;BME280;27246;52.376;4.628;2023-08-24T16:54:50;100870.91;;;22.53;100.00
24752;BME280;27246;52.376;4.628;2023-08-24T16:59:51;100854.09;;;22.53;100.00
24752;BME280;27246;52.376;4.628;2023-08-24T17:04:53;100862.75;;;22.52;100.00
24752;BME280;27246;52.376;4.628;2023-08-24T17:09:55;100862.75;;;22.52;100.00
24752;BME280;27246;52.376;4.628;2023-08-24T17:14:57;100850.69;;;22.51;100.00
24752;BME280;27246;52.376;4.628;2023-08-24T17:19:59;100840.06;;;22.53;100.00
24752;BME280;27246;52.376;4.628;2023-08-24T17:25:01;100842.03;;;22.53;100.00
24752;BME280;27246;52.376;4.628;2023-08-24T17:30:06;100830.81;;;22.53;100.00
24752;BME280;27246;52.376;4.628;2023-08-24T17:35:08;100822.66;;;22.51;100.00
24752;BME280;27246;52.376;4.628;2023-08-24T17:40:11;100832.44;;;22.49;100.00
24752;BME280;27246;52.376;4.628;2023-08-24T17:45:14;100830.13;;;22.46;100.00
24752;BME280;27246;52.376;4.628;2023-08-24T17:50:17;100843.41;;;22.50;100.00
24752;BME280;27246;52.376;4.628;2023-08-24T17:55:19;100833.53;;;22.48;100.00
24752;BME280;27246;52.376;4.628;2023-08-24T18:00:21;100840.16;;;22.42;100.00
24752;BME280;27246;52.376;4.628;2023-08-24T18:05:22;100812.09;;;22.36;100.00
24752;BME280;27246;52.376;4.628;2023-08-24T18:10:24;100812.88;;;22.32;100.00
24752;BME280;27246;52.376;4.628;2023-08-24T18:15:33;100813.88;;;22.26;100.00
24752;BME280;27246;52.376;4.628;2023-08-24T18:20:35;100796.63;;;22.17;100.00
24752;BME280;27246;52.376;4.628;2023-08-24T18:25:38;100773.88;;;22.13;100.00
24752;BME280;27246;52.376;4.628;2023-08-24T18:30:41;100765.41;;;22.08;100.00
24752;BME280;27246;52.376;4.628;2023-08-24T18:35:43;100751.06;;;22.05;100.00
24752;BME280;27246;52.376;4.628;2023-08-24T18:40:45;100782.91;;;21.98;100.00
24752;BME280;27246;52.376;4.628;2023-08-24T18:45:58;100791.50;;;21.92;100.00
24752;BME280;27246;52.376;4.628;2023-08-24T18:51:00;100821.16;;;21.93;100.00
24752;BME280;27246;52.376;4.628;2023-08-24T18:56:02;100828.13;;;21.90;100.00
24752;BME280;27246;52.376;4.628;2023-08-24T19:01:04;100831.53;;;21.92;100.00
24752;BME280;27246;52.376;4.628;2023-08-24T19:06:06;100832.72;;;21.96;100.00
24752;BME280;27246;52.376;4.628;2023-08-24T19:11:25;100799.78;;;21.87;100.00
24752;BME280;27246;52.376;4.628;2023-08-24T19:16:27;100788.19;;;21.78;100.00
24752;BME280;27246;52.376;4.628;2023-08-24T19:21:29;100765.09;;;21.71;100.00
24752;BME280;27246;52.376;4.628;2023-08-24T19:26:31;100776.22;;;21.66;100.00
24752;BME280;27246;52.376;4.628;2023-08-24T19:31:36;100731.94;;;21.63;100.00
24752;BME280;27246;52.376;4.628;2023-08-24T19:36:38;100743.91;;;21.58;100.00
24752;BME280;27246;52.376;4.628;2023-08-24T19:41:44;100746.50;;;21.65;100.00
24752;BME280;27246;52.376;4.628;2023-08-24T19:47:00;100736.69;;;21.62;100.00
24752;BME280;27246;52.376;4.628;2023-08-24T19:52:02;100774.34;;;21.54;100.00
24752;BME280;27246;52.376;4.628;2023-08-24T19:57:04;100798.69;;;21.54;100.00
24752;BME280;27246;52.376;4.628;2023-08-24T20:02:07;100793.91;;;21.54;100.00
24752;BME280;27246;52.376;4.628;2023-08-24T20:07:09;100784.34;;;21.50;100.00
24752;BME280;27246;52.376;4.628;2023-08-24T20:12:10;100798.25;;;21.45;100.00
24752;BME280;27246;52.376;4.628;2023-08-24T20:17:12;100796.31;;;21.34;100.00
24752;BME280;27246;52.376;4.628;2023-08-24T20:22:15;100787.22;;;21.27;100.00
24752;BME280;27246;52.376;4.628;2023-08-24T20:27:17;100771.56;;;21.26;100.00
24752;BME280;27246;52.376;4.628;2023-08-24T20:32:19;100755.25;;;21.23;100.00
24752;BME280;27246;52.376;4.628;2023-08-24T20:37:21;100755.78;;;21.20;100.00
24752;BME280;27246;52.376;4.628;2023-08-24T20:42:22;100750.78;;;21.22;100.00
24752;BME280;27246;52.376;4.628;2023-08-24T20:47:26;100751.03;;;21.20;100.00
24752;BME280;27246;52.376;4.628;2023-08-24T20:52:28;100737.81;;;21.15;100.00
24752;BME280;27246;52.376;4.628;2023-08-24T20:57:30;100725.19;;;21.13;100.00
24752;BME280;27246;52.376;4.628;2023-08-24T21:02:32;100755.94;;;21.13;100.00
24752;BME280;27246;52.376;4.628;2023-08-24T21:07:35;100760.78;;;21.17;100.00
24752;BME280;27246;52.376;4.628;2023-08-24T21:12:37;100761.00;;;21.16;100.00
24752;BME280;27246;52.376;4.628;2023-08-24T21:17:38;100733.22;;;21.09;100.00
24752;BME280;27246;52.376;4.628;2023-08-24T21:22:42;100730.41;;;21.09;100.00
24752;BME280;27246;52.376;4.628;2023-08-24T21:27:44;100748.81;;;21.05;100.00
24752;BME280;27246;52.376;4.628;2023-08-24T21:32:46;100747.97;;;21.05;100.00
24752;BME280;27246;52.376;4.628;2023-08-24T21:37:48;100773.16;;;20.93;100.00
24752;BME280;27246;52.376;4.628;2023-08-24T21:42:49;100770.50;;;20.86;100.00
24752;BME280;27246;52.376;4.628;2023-08-24T21:47:51;100772.38;;;20.81;100.00
24752;BME280;27246;52.376;4.628;2023-08-24T21:52:55;100786.59;;;20.79;100.00
24752;BME280;27246;52.376;4.628;2023-08-24T21:57:56;100794.00;;;20.73;100.00
24752;BME280;27246;52.376;4.628;2023-08-24T22:02:58;100794.75;;;20.69;100.00
24752;BME280;27246;52.376;4.628;2023-08-24T22:08:01;100784.81;;;20.61;100.00
24752;BME280;27246;52.376;4.628;2023-08-24T22:13:06;100781.63;;;20.57;100.00
24752;BME280;27246;52.376;4.628;2023-08-24T22:18:08;100783.09;;;20.60;100.00
24752;BME280;27246;52.376;4.628;2023-08-24T22:23:12;100775.91;;;20.64;100.00
24752;BME280;27246;52.376;4.628;2023-08-24T22:28:14;100777.63;;;20.65;100.00
24752;BME280;27246;52.376;4.628;2023-08-24T22:33:16;100766.44;;;20.65;100.00
24752;BME280;27246;52.376;4.628;2023-08-24T22:38:18;100760.72;;;20.60;100.00
24752;BME280;27246;52.376;4.628;2023-08-24T22:43:19;100783.56;;;20.57;100.00
24752;BME280;27246;52.376;4.628;2023-08-24T22:48:21;100775.66;;;20.54;100.00
24752;BME280;27246;52.376;4.628;2023-08-24T22:53:22;100775.66;;;20.54;100.00
24752;BME280;27246;52.376;4.628;2023-08-24T22:58:24;100775.94;;;20.52;100.00
24752;BME280;27246;52.376;4.628;2023-08-24T23:03:26;100787.44;;;20.56;100.00
24752;BME280;27246;52.376;4.628;2023-08-24T23:08:28;100794.63;;;20.52;100.00
24752;BME280;27246;52.376;4.628;2023-08-24T23:13:30;100783.72;;;20.50;100.00
24752;BME280;27246;52.376;4.628;2023-08-24T23:18:32;100782.50;;;20.46;100.00
24752;BME280;27246;52.376;4.628;2023-08-24T23:23:33;100774.47;;;20.50;100.00
24752;BME280;27246;52.376;4.628;2023-08-24T23:28:35;100774.97;;;20.47;100.00
24752;BME280;27246;52.376;4.628;2023-08-24T23:33:37;100773.63;;;20.37;100.00
24752;BME280;27246;52.376;4.628;2023-08-24T23:38:39;100773.41;;;20.39;100.00
24752;BME280;27246;52.376;4.628;2023-08-24T23:43:43;100773.53;;;20.44;100.00
24752;BME280;27246;52.376;4.628;2023-08-24T23:48:45;100770.38;;;20.41;100.00
24752;BME280;27246;52.376;4.628;2023-08-24T23:53:49;100765.63;;;20.41;100.00
24752;BME280;27246;52.376;4.628;2023-08-24T23:58:51;100778.75;;;20.41;100.00
